Time;durP1;ratioP1;P1;durP2;ratioP2;P2;SDS_P1;SDS_P2;PMS_P1;PMS_P2;Temp;Humidity;BMP_temperature;BMP_pressure;BME280_temperature;BME280_humidity;BME280_pressure;Samples;Min_cycle;Max_cycle;Signal;HPM_P1;HPM_P2
2022/04/26 03:37:33;;;;;;;20.97;19.17;;;;;;;5.32;85.62;100029.47;4996035;28;20267;-72
2022/04/26 03:40:00;;;;;;;19.73;18.03;;;;;;;5.34;84.94;100041.50;4995999;28;20266;-72
2022/04/26 03:42:26;;;;;;;18.50;16.93;;;;;;;5.28;84.98;100053.63;4995541;28;20235;-72
2022/04/26 03:44:53;;;;;;;17.60;16.10;;;;;;;5.21;85.51;100049.31;4994857;28;20210;-72
2022/04/26 03:47:19;;;;;;;17.17;15.77;;;;;;;5.18;85.09;100047.63;4995661;28;20255;-72
2022/04/26 03:49:46;;;;;;;16.43;15.00;;;;;;;5.19;85.18;100051.91;4995738;28;20227;-72
2022/04/26 03:52:13;;;;;;;14.93;13.73;;;;;;;5.15;85.56;100037.25;4995852;28;20276;-72
2022/04/26 03:54:40;;;;;;;15.63;14.40;;;;;;;5.11;85.89;100035.56;4995671;28;20208;-72
2022/04/26 03:57:06;;;;;;;17.80;16.30;;;;;;;5.08;85.72;100030.41;4995414;28;20254;-72
2022/04/26 03:59:33;;;;;;;18.40;16.63;;;;;;;5.01;86.24;100016.63;4995069;28;20267;-72
2022/04/26 04:02:00;;;;;;;18.03;16.30;;;;;;;5.02;85.37;100026.13;4995107;28;20238;-72
2022/04/26 04:04:26;;;;;;;20.83;18.90;;;;;;;5.04;85.29;100036.47;4995171;28;20211;-72
2022/04/26 04:06:53;;;;;;;21.47;19.43;;;;;;;4.97;84.99;100031.31;4995275;28;20266;-72
2022/04/26 04:09:21;;;;;;;21.73;19.63;;;;;;;4.98;85.35;100035.59;4995466;28;20270;-72
2022/04/26 04:11:47;;;;;;;21.23;19.03;;;;;;;4.95;85.43;100040.75;4994784;28;20597;-72
2022/04/26 04:14:14;;;;;;;21.73;19.70;;;;;;;4.97;86.06;100033.00;4995107;28;20211;-72
2022/04/26 04:16:41;;;;;;;23.80;20.23;;;;;;;5.12;85.11;100045.91;4995041;28;20245;-72
2022/04/26 04:19:21;;;;;;;19.00;17.10;;;;;;;5.14;84.12;100077.81;4995180;28;20716;-72
2022/04/26 04:21:48;;;;;;;18.67;16.97;;;;;;;5.01;84.27;100072.66;4994893;28;20231;-72
2022/04/26 04:24:15;;;;;;;17.57;16.03;;;;;;;5.03;84.49;100070.94;4994587;28;20892;-72
2022/04/26 04:26:43;;;;;;;16.47;14.97;;;;;;;5.08;84.41;100070.06;4994977;28;20634;-72
2022/04/26 04:29:10;;;;;;;17.20;15.60;;;;;;;5.01;83.95;100077.84;4994345;28;20764;-72
2022/04/26 04:31:37;;;;;;;18.23;16.37;;;;;;;4.84;84.28;100078.75;4995097;28;20231;-72
2022/04/26 04:34:04;;;;;;;19.17;17.37;;;;;;;4.86;84.88;100056.31;4994390;28;20211;-72
2022/04/26 04:36:30;;;;;;;21.57;19.27;;;;;;;4.79;84.84;100054.59;4994867;28;20208;-72
2022/04/26 04:38:57;;;;;;;23.80;21.30;;;;;;;4.76;85.66;100046.88;4994769;28;20283;-72
2022/04/26 04:41:24;;;;;;;28.77;23.50;;;;;;;4.74;86.23;100036.53;4994390;28;20227;-72
2022/04/26 04:43:52;;;;;;;31.63;23.87;;;;;;;4.81;86.56;100019.25;4994238;28;20713;-72
2022/04/26 04:46:18;;;;;;;35.03;23.87;;;;;;;4.77;86.87;100012.38;4993727;28;20684;-72
2022/04/26 04:48:45;;;;;;;28.70;22.87;;;;;;;4.83;86.78;100006.34;4994469;28;20669;-72
2022/04/26 04:51:12;;;;;;;27.87;22.50;;;;;;;4.91;86.47;100014.94;4994259;28;20232;-72
2022/04/26 04:53:38;;;;;;;32.13;23.60;;;;;;;5.04;85.83;100033.88;4994433;28;20258;-72
2022/04/26 04:56:08;;;;;;;29.10;22.17;;;;;;;5.09;85.92;100043.31;4994588;28;20258;-72
2022/04/26 04:58:35;;;;;;;30.10;24.03;;;;;;;5.17;85.51;100043.28;4994448;28;20208;-72
2022/04/26 05:01:03;;;;;;;27.83;22.77;;;;;;;5.11;86.37;100048.50;4994197;28;20227;-72
2022/04/26 05:03:29;;;;;;;31.40;23.13;;;;;;;5.10;86.44;100041.63;4994281;28;20235;-72
2022/04/26 05:05:55;;;;;;;30.60;23.53;;;;;;;5.10;86.24;100039.88;4994232;28;20263;-72
2022/04/26 05:08:22;;;;;;;33.07;23.83;;;;;;;5.12;86.66;100037.28;4994311;28;20789;-72
2022/04/26 05:10:48;;;;;;;27.30;23.00;;;;;;;5.24;85.91;100044.16;4994100;28;20294;-72
2022/04/26 05:13:15;;;;;;;31.83;24.23;;;;;;;5.28;86.33;100051.91;4994019;28;20209;-72
2022/04/26 05:15:44;;;;;;;24.83;22.13;;;;;;;5.23;86.60;100039.84;4993726;28;20234;-72
2022/04/26 05:18:12;;;;;;;29.90;22.67;;;;;;;5.28;87.17;100022.56;4994040;28;20210;-72
2022/04/26 05:20:39;;;;;;;29.23;22.77;;;;;;;5.23;88.08;100006.19;4993956;28;20247;-72
2022/04/26 05:25:50;;;;;;;28.17;22.83;;;;;;;5.37;88.94;99989.75;4993812;28;20788;-72
2022/04/26 05:28:16;;;;;;;26.03;23.03;;;;;;;5.51;89.14;99968.97;4993351;28;20204;-72
2022/04/26 05:30:42;;;;;;;25.53;22.77;;;;;;;5.68;89.15;99968.00;4993888;28;20232;-72
2022/04/26 05:33:09;;;;;;;30.13;23.87;;;;;;;5.79;88.98;99968.78;4993827;28;20255;-72
2022/04/26 05:35:37;;;;;;;25.00;21.87;;;;;;;5.88;88.88;99968.72;4993354;28;20208;-72
2022/04/26 05:38:03;;;;;;;23.33;20.87;;;;;;;5.95;88.34;99985.13;4993564;28;20221;-72
2022/04/26 05:40:30;;;;;;;23.10;20.90;;;;;;;6.05;87.79;100012.66;4993530;28;20213;-72
2022/04/26 05:42:56;;;;;;;20.60;18.70;;;;;;;6.12;86.67;100036.78;4993191;28;20695;-72
2022/04/26 05:45:25;;;;;;;20.83;18.87;;;;;;;6.18;85.48;100067.84;4992381;28;20207;-72
2022/04/26 05:47:51;;;;;;;18.50;16.67;;;;;;;6.19;85.58;100085.13;4980312;28;20213;-72
2022/04/26 05:50:17;;;;;;;17.40;15.87;;;;;;;6.23;85.89;100075.59;4990093;28;20213;-72
2022/04/26 05:52:45;;;;;;;20.27;18.40;;;;;;;6.27;85.45;100077.31;4993508;28;20210;-72
2022/04/26 05:55:12;;;;;;;21.97;19.97;;;;;;;6.32;85.37;100086.78;4992095;28;20284;-72
2022/04/26 05:57:39;;;;;;;23.17;20.57;;;;;;;6.33;85.67;100077.25;4992894;28;20612;-72
2022/04/26 06:00:07;;;;;;;22.47;20.30;;;;;;;6.35;86.28;100047.00;4992831;28;20202;-72
2022/04/26 06:02:34;;;;;;;24.53;20.47;;;;;;;6.43;87.62;100028.78;4992229;28;20247;-71
2022/04/26 06:05:01;;;;;;;23.43;21.23;;;;;;;6.44;88.27;100000.25;4992275;28;20196;-71
2022/04/26 06:07:28;;;;;;;21.17;19.27;;;;;;;6.54;88.38;99993.22;4992821;28;20206;-70
2022/04/26 06:09:56;;;;;;;22.73;20.37;;;;;;;6.65;88.27;99993.13;4992585;28;20208;-71
2022/04/26 06:12:26;;;;;;;21.13;19.20;;;;;;;6.49;89.85;99956.13;4992572;28;20225;-71
2022/04/26 06:14:52;;;;;;;21.43;19.47;;;;;;;6.56;89.78;99944.81;4991961;28;20674;-71
2022/04/26 06:17:19;;;;;;;20.97;18.97;;;;;;;6.45;91.11;99936.31;4992115;28;20227;-70
2022/04/26 06:19:45;;;;;;;21.37;19.37;;;;;;;6.32;91.67;99923.47;4992422;28;20774;-70
2022/04/26 06:22:12;;;;;;;20.90;19.10;;;;;;;6.03;93.25;99897.81;4992098;28;20278;-70
2022/04/26 06:24:38;;;;;;;21.17;19.27;;;;;;;5.61;94.23;99870.50;4989503;28;20611;-70
2022/04/26 06:27:07;;;;;;;22.43;20.43;;;;;;;5.34;95.68;99829.31;4992284;28;20201;-70
2022/04/26 06:29:33;;;;;;;22.10;19.97;;;;;;;5.30;97.09;99798.31;4992378;28;20203;-71
2022/04/26 06:32:00;;;;;;;23.63;21.33;;;;;;;5.23;97.48;99778.50;4992138;28;20220;-71
2022/04/26 06:34:26;;;;;;;24.63;21.73;;;;;;;5.29;97.84;99781.94;4991427;28;20205;-71
2022/04/26 06:36:52;;;;;;;22.43;20.37;;;;;;;5.41;98.14;99777.50;4991954;28;20278;-71
2022/04/26 06:39:19;;;;;;;21.97;19.87;;;;;;;5.56;98.47;99780.81;4992071;28;20648;-71
2022/04/26 06:41:45;;;;;;;23.10;20.90;;;;;;;5.63;97.80;99786.81;4991932;28;20230;-71
2022/04/26 06:44:13;;;;;;;23.90;21.37;;;;;;;5.74;97.88;99795.31;4988678;28;20219;-71
2022/04/26 06:46:40;;;;;;;23.27;21.03;;;;;;;5.91;98.03;99789.97;4991732;28;20204;-71
2022/04/26 06:49:07;;;;;;;21.97;19.67;;;;;;;6.11;97.82;99789.78;4991547;28;20731;-71
2022/04/26 06:51:37;;;;;;;26.57;23.30;;;;;;;6.33;96.93;99803.34;4989241;28;20323;-71
2022/04/26 06:54:04;;;;;;;25.00;21.63;;;;;;;6.49;96.19;99826.50;4991863;28;20826;-71
2022/04/26 06:56:30;;;;;;;26.87;23.73;;;;;;;6.65;96.09;99847.91;4993619;28;20202;-71
2022/04/26 06:58:57;;;;;;;25.40;22.43;;;;;;;6.78;95.59;99840.81;4995980;28;20260;-71
2022/04/26 07:01:25;;;;;;;27.47;23.13;;;;;;;6.97;95.58;99860.47;4996006;28;20222;-72
2022/04/26 07:03:51;;;;;;;25.23;22.73;;;;;;;7.13;94.75;99867.13;4995565;28;20219;-71
2022/04/26 07:06:18;;;;;;;27.10;23.87;;;;;;;7.32;94.23;99885.91;4996290;28;20214;-71
2022/04/26 07:08:44;;;;;;;30.77;24.60;;;;;;;7.48;94.12;99893.50;4995749;28;20202;-71
2022/04/26 07:11:11;;;;;;;25.93;23.30;;;;;;;7.61;94.52;99900.22;4994399;28;20601;-72
2022/04/26 07:13:37;;;;;;;25.23;22.53;;;;;;;7.73;93.26;99905.22;4995648;28;20259;-71
2022/04/26 07:16:05;;;;;;;25.43;21.77;;;;;;;7.78;93.44;99912.06;4995928;28;20267;-72
2022/04/26 07:18:33;;;;;;;24.07;21.97;;;;;;;7.91;93.49;99921.41;4995964;28;20206;-71
2022/04/26 07:21:00;;;;;;;24.57;21.97;;;;;;;7.94;92.83;99934.31;4996073;28;20259;-72
2022/04/26 07:23:27;;;;;;;25.00;22.47;;;;;;;8.02;93.10;99944.59;4996009;28;20260;-72
2022/04/26 07:25:55;;;;;;;25.20;22.50;;;;;;;8.04;93.40;99951.47;4995332;28;20217;-72
2022/04/26 07:28:21;;;;;;;28.90;23.60;;;;;;;7.98;92.88;99943.78;4993362;28;20294;-72
2022/04/26 07:30:48;;;;;;;25.93;23.10;;;;;;;8.02;93.91;99936.78;4995236;28;20230;-72
2022/04/26 07:36:00;;;;;;;27.53;23.80;;;;;;;8.09;94.75;99933.22;4995256;28;20209;-72
2022/04/26 07:38:26;;;;;;;36.73;26.30;;;;;;;8.11;95.20;99905.47;4995124;28;20678;-72
2022/04/26 07:40:53;;;;;;;31.33;26.17;;;;;;;7.78;95.51;99897.34;4995395;28;20256;-72
2022/04/26 07:43:19;;;;;;;34.03;26.03;;;;;;;7.90;96.61;99883.28;4994473;28;20225;-72
2022/04/26 07:45:46;;;;;;;43.43;29.60;;;;;;;7.74;97.15;99873.13;4994234;28;20949;-72
2022/04/26 07:48:16;;;;;;;46.23;30.93;;;;;;;7.80;98.00;99855.75;4994317;28;20254;-72
2022/04/26 07:50:44;;;;;;;52.80;33.23;;;;;;;7.73;98.95;99847.19;4994830;28;20284;-72
2022/04/26 07:53:12;;;;;;;54.07;33.90;;;;;;;7.90;99.63;99846.91;4995161;28;20199;-72
2022/04/26 07:55:39;;;;;;;54.83;33.73;;;;;;;7.95;98.93;99840.75;4994680;28;20206;-72
2022/04/26 07:58:05;;;;;;;60.67;36.27;;;;;;;8.12;99.23;99850.81;4994853;28;20291;-72
2022/04/26 08:00:33;;;;;;;57.47;35.60;;;;;;;8.29;98.59;99860.06;4995083;28;20332;-73
2022/04/26 08:03:02;;;;;;;57.03;35.50;;;;;;;8.33;97.95;99885.97;4992315;28;20212;-73
2022/04/26 08:05:29;;;;;;;59.47;36.70;;;;;;;8.46;98.08;99891.84;4994750;28;20204;-73
2022/04/26 08:07:55;;;;;;;62.67;36.07;;;;;;;8.62;98.16;99895.00;4994186;28;20206;-72
2022/04/26 08:10:24;;;;;;;53.97;34.60;;;;;;;8.83;98.12;99895.47;4994386;28;20699;-73
2022/04/26 08:12:51;;;;;;;64.80;37.87;;;;;;;8.95;97.28;99916.88;4995128;28;20214;-72
2022/04/26 08:15:19;;;;;;;56.13;35.67;;;;;;;8.97;95.92;99939.41;4994804;28;20217;-72
2022/04/26 08:17:48;;;;;;;52.07;34.57;;;;;;;9.03;95.19;99968.78;4994745;28;20697;-72
2022/04/26 08:20:14;;;;;;;53.77;34.97;;;;;;;9.12;94.93;99983.38;4994760;28;20209;-72
2022/04/26 08:22:41;;;;;;;50.97;35.53;;;;;;;9.27;94.40;99995.22;4994666;28;20214;-73
2022/04/26 08:27:53;;;;;;;45.77;31.30;;;;;;;9.53;93.15;100029.41;4994764;28;20574;-73
2022/04/26 08:30:20;;;;;;;44.67;31.87;;;;;;;9.66;92.45;100052.59;4994696;28;20734;-73
2022/04/26 08:32:47;;;;;;;46.67;31.80;;;;;;;9.73;91.86;100068.06;4994497;28;20260;-72
2022/04/26 08:35:16;;;;;;;40.33;30.70;;;;;;;9.71;90.69;100100.22;4994147;28;20246;-72
2022/04/26 08:37:43;;;;;;;45.53;32.13;;;;;;;9.89;90.37;100122.44;4994711;28;20215;-73
2022/04/26 08:40:10;;;;;;;49.27;33.30;;;;;;;9.98;90.81;100134.44;4994870;28;20239;-72
2022/04/26 08:42:38;;;;;;;55.10;33.40;;;;;;;10.11;91.79;100099.41;4994262;28;20238;-72
2022/04/26 08:45:08;;;;;;;46.77;32.67;;;;;;;10.18;90.16;100124.44;4992635;28;20231;-72
2022/04/26 08:53:03;;;;;;;46.17;29.50;;;;;;;10.39;87.69;100235.31;4989684;28;20206;-75
2022/04/26 08:55:31;;;;;;;37.67;30.03;;;;;;;10.51;87.81;100226.38;4993370;28;20205;-76
2022/04/26 08:57:57;;;;;;;34.83;28.20;;;;;;;10.67;87.25;100243.41;4991318;28;20210;-76
2022/04/26 09:00:26;;;;;;;30.33;26.67;;;;;;;10.81;86.81;100252.66;4993547;28;20257;-76
2022/04/26 09:03:04;;;;;;;35.37;27.70;;;;;;;10.91;85.31;100286.34;4994023;28;20199;-75
2022/04/26 09:05:31;;;;;;;34.27;27.60;;;;;;;10.91;84.61;100314.22;4993390;28;20283;-76
2022/04/26 09:07:59;;;;;;;39.40;28.67;;;;;;;11.01;84.76;100320.13;4991361;28;20249;-76
2022/04/26 09:10:29;;;;;;;32.27;26.87;;;;;;;11.10;84.11;100336.44;4993349;28;20202;-76
2022/04/26 09:13:07;;;;;;;26.40;23.67;;;;;;;11.29;83.35;100349.06;4993637;28;20203;-76
2022/04/26 09:15:42;;;;;;;23.93;21.07;;;;;;;11.37;82.16;100396.78;4992963;28;20206;-76
2022/04/26 09:18:17;;;;;;;24.97;22.47;;;;;;;11.45;80.99;100425.38;4992063;28;20300;-77
2022/04/26 09:20:44;;;;;;;24.60;22.00;;;;;;;11.58;81.60;100420.72;4989858;28;20696;-76
2022/04/26 09:23:18;;;;;;;25.93;21.40;;;;;;;11.67;80.87;100441.41;4993470;28;20260;-76
2022/04/26 09:25:46;;;;;;;21.53;19.37;;;;;;;11.76;78.39;100485.66;4990812;28;20243;-75
2022/04/26 09:28:21;;;;;;;21.73;19.53;;;;;;;11.91;77.77;100523.69;4993248;28;20221;-75
2022/04/26 09:30:49;;;;;;;22.07;20.03;;;;;;;12.01;78.15;100525.22;4991106;28;20293;-76
2022/04/26 09:33:32;;;;;;;22.20;20.10;;;;;;;12.03;76.40;100561.78;4992765;28;20203;-77
2022/04/26 09:36:02;;;;;;;22.43;19.90;;;;;;;12.05;75.71;100604.47;4992933;28;20229;-76
2022/04/26 09:38:31;;;;;;;21.93;20.00;;;;;;;12.15;76.80;100586.81;4993186;28;20203;-76
2022/04/26 09:41:00;;;;;;;18.00;16.60;;;;;;;12.24;73.92;100625.88;4992710;28;20802;-76
2022/04/26 09:43:28;;;;;;;20.87;18.97;;;;;;;12.34;74.09;100631.75;4992488;28;20214;-77
2022/04/26 09:45:57;;;;;;;18.83;17.20;;;;;;;12.47;74.10;100643.69;4991197;28;20225;-77
2022/04/26 09:48:32;;;;;;;19.10;17.53;;;;;;;12.57;74.40;100647.78;4992962;28;20605;-76
2022/04/26 09:50:59;;;;;;;16.77;15.33;;;;;;;12.62;72.92;100672.09;4989772;28;20724;-74
2022/04/26 09:53:26;;;;;;;17.23;15.73;;;;;;;12.75;72.00;100703.25;4992905;28;20196;-75
2022/04/26 09:55:56;;;;;;;17.33;15.93;;;;;;;12.88;72.32;100729.13;4992316;28;20734;-76
2022/04/26 09:58:23;;;;;;;17.20;15.80;;;;;;;13.08;72.45;100697.19;4990550;28;20203;-76
2022/04/26 10:00:52;;;;;;;17.07;15.60;;;;;;;13.21;69.54;100791.25;4992751;28;20295;-76
2022/04/26 10:03:25;;;;;;;15.23;13.93;;;;;;;13.26;69.35;100815.56;4992799;28;20200;-76
2022/04/26 10:05:59;;;;;;;11.90;11.00;;;;;;;13.35;66.41;100886.19;4991939;28;20262;-77
2022/04/26 10:08:28;;;;;;;11.93;10.97;;;;;;;13.43;66.56;100920.09;4990796;28;20196;-76
2022/04/26 10:10:55;;;;;;;12.87;11.70;;;;;;;13.58;64.67;100942.50;4992281;28;20278;-76
2022/04/26 10:13:36;;;;;;;12.03;10.93;;;;;;;13.65;64.34;100972.94;4992518;28;20265;-75
2022/04/26 10:16:04;;;;;;;10.87;10.07;;;;;;;13.79;64.65;100959.47;4990357;28;20223;-74
2022/04/26 10:18:35;;;;;;;10.50;9.60;;;;;;;13.99;63.22;100980.84;4991921;28;20589;-76
2022/04/26 10:21:03;;;;;;;11.53;10.63;;;;;;;14.11;61.71;101042.69;4989730;28;20230;-75
2022/04/26 10:24:08;;;;;;;11.90;11.00;;;;;;;14.19;65.91;101005.75;4992354;28;20204;-76
2022/04/26 10:26:35;;;;;;;12.10;11.20;;;;;;;14.26;62.69;100958.31;4991558;28;20661;-75
2022/04/26 10:29:03;;;;;;;11.10;10.20;;;;;;;14.49;66.51;100927.94;4992318;28;20203;-76
2022/04/26 10:31:38;;;;;;;9.13;8.43;;;;;;;14.68;61.71;100999.28;4991605;28;20629;-75
2022/04/26 10:34:24;;;;;;;10.30;9.40;;;;;;;14.81;61.17;101065.53;4990233;28;20199;-76
2022/04/26 10:36:51;;;;;;;10.47;9.67;;;;;;;14.76;59.74;101109.44;4990964;28;20231;-75
2022/04/26 10:39:25;;;;;;;10.47;9.47;;;;;;;14.91;63.40;101027.56;4991814;28;20332;-75
2022/04/26 10:41:53;;;;;;;10.13;9.33;;;;;;;15.01;58.08;101094.75;4989391;28;20299;-75
2022/04/26 10:44:38;;;;;;;11.07;10.13;;;;;;;15.24;60.46;101057.31;4989240;28;20228;-75
2022/04/26 10:47:28;;;;;;;11.20;10.20;;;;;;;15.05;55.69;101222.59;4990295;28;20587;-75
2022/04/26 10:49:59;;;;;;;12.07;11.00;;;;;;;15.15;57.08;101188.19;4991229;28;20597;-76
2022/04/26 10:52:43;;;;;;;10.53;9.77;;;;;;;15.04;58.22;101189.34;4991517;28;20308;-77
2022/04/26 10:55:18;;;;;;;10.17;9.47;;;;;;;15.01;60.96;101115.78;4990918;28;20188;-76
2022/04/26 10:57:47;;;;;;;11.87;10.83;;;;;;;14.92;59.66;101100.25;4989752;28;20203;-76
2022/04/26 11:00:15;;;;;;;11.13;10.23;;;;;;;14.81;59.14;101141.75;4991914;28;20196;-75
2022/04/26 11:02:44;;;;;;;9.77;9.07;;;;;;;14.80;59.18;101109.31;4989494;28;20207;-76
2022/04/26 11:05:15;;;;;;;10.90;10.10;;;;;;;14.67;57.80;101155.22;4991392;28;20262;-75
2022/04/26 11:07:43;;;;;;;10.53;9.73;;;;;;;14.77;58.37;101148.84;4989777;28;20192;-76
2022/04/26 11:10:11;;;;;;;10.57;9.70;;;;;;;14.79;56.60;101206.63;4992041;28;20263;-75
2022/04/26 11:12:39;;;;;;;10.33;9.53;;;;;;;14.96;58.80;101127.31;4991313;28;20780;-75
2022/04/26 11:15:08;;;;;;;10.47;9.67;;;;;;;15.18;59.35;101109.22;4991340;28;20197;-75
2022/04/26 11:17:35;;;;;;;10.40;9.60;;;;;;;15.49;55.69;101161.84;4991505;28;20196;-75
2022/04/26 11:20:05;;;;;;;9.97;9.27;;;;;;;15.58;51.95;101305.44;4991763;28;20206;-75
2022/04/26 11:22:42;;;;;;;10.20;9.33;;;;;;;15.85;53.29;101338.13;4992129;28;20221;-77
2022/04/26 11:28:02;;;;;;;10.17;9.37;;;;;;;16.34;52.44;101314.84;4991028;28;20220;-76
2022/04/26 11:30:31;;;;;;;11.03;10.23;;;;;;;16.23;53.34;101308.13;4990447;28;20197;-76
2022/04/26 11:32:59;;;;;;;10.63;9.83;;;;;;;16.16;52.47;101335.53;4991795;28;20232;-76
2022/04/26 11:35:26;;;;;;;10.90;10.10;;;;;;;16.03;52.80;101331.50;4991406;28;20205;-77
2022/04/26 11:37:55;;;;;;;10.43;9.63;;;;;;;15.87;52.50;101326.66;4990638;28;20289;-76
2022/04/26 11:40:23;;;;;;;10.70;9.87;;;;;;;15.67;52.26;101342.06;4988818;28;20206;-76
2022/04/26 11:42:50;;;;;;;11.30;10.40;;;;;;;15.52;53.02;101334.56;4992260;28;20271;-76
2022/04/26 11:45:16;;;;;;;11.40;10.40;;;;;;;15.41;53.77;101306.75;4993287;28;20280;-76
2022/04/26 11:47:46;;;;;;;10.83;10.03;;;;;;;15.47;54.15;101274.16;4994618;28;20203;-76
2022/04/26 11:50:15;;;;;;;10.23;9.43;;;;;;;15.41;53.30;101308.53;4994536;28;20204;-75
2022/04/26 11:52:43;;;;;;;10.83;10.00;;;;;;;15.98;52.18;101310.56;4992667;28;20241;-76
2022/04/26 11:55:19;;;;;;;9.67;8.97;;;;;;;16.68;51.18;101343.72;4994699;28;20280;-76
2022/04/26 11:57:46;;;;;;;9.97;9.10;;;;;;;16.98;50.95;101381.50;4992342;28;20211;-76
2022/04/26 12:00:14;;;;;;;10.10;9.37;;;;;;;18.05;50.55;101323.44;4994670;28;20203;-76
2022/04/26 12:02:41;;;;;;;9.97;9.20;;;;;;;18.28;46.56;101520.00;4992278;28;20684;-76
2022/04/26 12:05:08;;;;;;;8.77;8.17;;;;;;;18.06;46.19;101573.56;4994712;28;20222;-76
2022/04/26 12:07:35;;;;;;;9.00;8.30;;;;;;;17.49;45.51;101629.84;4994596;28;20202;-76
2022/04/26 12:10:02;;;;;;;8.17;7.60;;;;;;;17.11;46.86;101597.47;4994982;28;20204;-76
2022/04/26 12:12:30;;;;;;;8.07;7.47;;;;;;;16.73;48.77;101515.81;4994433;28;20640;-75
2022/04/26 12:14:57;;;;;;;7.30;6.70;;;;;;;15.97;48.85;101484.41;4994241;28;20207;-75
2022/04/26 12:17:29;;;;;;;7.17;6.53;;;;;;;15.86;50.72;101434.66;4994440;28;20257;-74
2022/04/26 12:19:56;;;;;;;7.50;6.80;;;;;;;15.83;52.05;101390.81;4994790;28;20203;-74
2022/04/26 12:22:25;;;;;;;7.80;7.20;;;;;;;15.73;52.99;101320.88;4994169;28;20279;-76
2022/04/26 12:24:53;;;;;;;7.70;7.20;;;;;;;15.41;51.41;101329.56;4993663;28;20236;-75
2022/04/26 12:27:22;;;;;;;8.00;7.40;;;;;;;15.27;53.73;101322.03;4991551;28;20626;-74
2022/04/26 12:29:51;;;;;;;8.17;7.43;;;;;;;15.13;53.57;101301.31;4994147;28;20216;-76
2022/04/26 12:32:19;;;;;;;8.13;7.33;;;;;;;14.88;55.50;101245.81;4993241;28;20225;-76
2022/04/26 12:34:51;;;;;;;8.03;7.40;;;;;;;14.41;56.50;101180.31;4993925;28;20205;-78
2022/04/26 12:37:21;;;;;;;9.60;8.82;;;;;;;14.02;61.11;101074.44;4304349;28;10000672;-78
2022/04/26 12:39:49;;;;;;;9.80;8.97;;;;;;;14.20;63.97;100955.84;4991349;28;20629;-78
2022/04/26 12:42:17;;;;;;;11.30;10.40;;;;;;;14.10;66.67;100834.44;4990897;28;20263;-79
2022/04/26 12:44:53;;;;;;;9.77;8.80;;;;;;;14.34;68.18;100774.28;4990191;28;20236;-80
2022/04/26 12:52:53;;;;;;;10.60;9.90;;;;;;;14.38;62.05;100893.22;4991649;28;20195;-75
2022/04/26 12:55:28;;;;;;;10.53;9.80;;;;;;;14.33;63.66;100940.63;4990707;28;20215;-77
2022/04/26 12:57:55;;;;;;;9.93;9.23;;;;;;;14.19;63.29;100963.75;4991239;28;20447;-77
2022/04/26 13:00:24;;;;;;;10.90;9.70;;;;;;;14.08;64.15;100915.00;4991562;28;20209;-79
2022/04/26 13:02:53;;;;;;;9.43;8.63;;;;;;;14.09;62.55;100957.84;4993559;28;20203;-77
2022/04/26 13:05:21;;;;;;;8.63;7.93;;;;;;;14.04;62.08;100999.97;4990865;28;20254;-77
2022/04/26 13:07:48;;;;;;;8.43;7.73;;;;;;;13.97;60.70;101035.16;4990912;28;20207;-76
2022/04/26 13:10:15;;;;;;;7.37;6.77;;;;;;;13.94;61.53;100997.63;4991018;28;20216;-77
2022/04/26 13:12:42;;;;;;;8.77;8.07;;;;;;;13.93;60.99;101007.25;4990927;28;20215;-77
2022/04/26 13:15:10;;;;;;;9.50;8.90;;;;;;;13.85;61.54;101006.56;4990460;28;20290;-77
2022/04/26 13:17:38;;;;;;;7.50;7.00;;;;;;;13.78;62.77;100973.53;4990968;28;20207;-76
2022/04/26 13:20:06;;;;;;;8.37;7.77;;;;;;;13.77;63.35;100953.41;4990561;28;21213;-78
2022/04/26 13:22:34;;;;;;;7.60;7.00;;;;;;;13.80;65.23;100908.75;4990534;28;20261;-77
2022/04/26 13:25:01;;;;;;;7.27;6.67;;;;;;;13.77;65.16;100893.06;4990864;28;20234;-77
2022/04/26 13:27:28;;;;;;;7.27;6.60;;;;;;;13.77;65.80;100869.44;4990783;28;20207;-77
2022/04/26 13:29:54;;;;;;;5.97;5.57;;;;;;;13.78;63.91;100908.78;4990915;28;20205;-78
2022/04/26 13:32:21;;;;;;;5.30;4.90;;;;;;;13.80;64.23;100896.47;4990677;28;20265;-77
2022/04/26 13:34:49;;;;;;;6.27;5.87;;;;;;;13.80;65.27;100917.47;4990182;28;20212;-77
2022/04/26 13:37:17;;;;;;;6.13;5.60;;;;;;;13.90;66.40;100858.59;4990608;28;20208;-77
2022/04/26 13:39:45;;;;;;;6.93;6.43;;;;;;;13.98;65.86;100866.28;4990755;28;20213;-77
2022/04/26 13:42:12;;;;;;;6.80;6.30;;;;;;;14.09;64.88;100879.09;4990389;28;20250;-77
2022/04/26 13:44:38;;;;;;;6.37;5.97;;;;;;;14.17;63.26;100931.41;4989918;28;20294;-76
2022/04/26 13:47:06;;;;;;;6.03;5.63;;;;;;;14.16;62.76;100942.84;4989788;28;20324;-76
2022/04/26 13:49:34;;;;;;;5.90;5.50;;;;;;;14.16;63.27;100954.19;4990464;28;20219;-75
2022/04/26 13:52:02;;;;;;;5.17;4.77;;;;;;;14.26;62.59;100974.06;4990518;28;20228;-75
2022/04/26 13:54:28;;;;;;;5.67;5.33;;;;;;;14.34;64.08;100936.25;4990191;28;20210;-75
2022/04/26 13:56:55;;;;;;;6.13;5.73;;;;;;;14.43;62.41;100942.13;4989941;28;20211;-75
2022/04/26 13:59:22;;;;;;;5.33;4.93;;;;;;;14.52;63.76;100946.25;4990038;28;20207;-76
2022/04/26 14:01:49;;;;;;;5.53;5.20;;;;;;;14.66;62.72;100940.63;4989668;28;20900;-75
2022/04/26 14:04:15;;;;;;;5.03;4.63;;;;;;;14.81;58.64;101068.16;4989425;28;20713;-75
2022/04/26 14:06:42;;;;;;;4.83;4.40;;;;;;;14.99;59.13;101062.38;4989578;28;20282;-76
2022/04/26 14:09:10;;;;;;;4.83;4.53;;;;;;;15.18;60.06;101043.47;4990055;28;20271;-76
2022/04/26 14:11:36;;;;;;;5.73;5.33;;;;;;;15.32;58.09;101093.03;4989863;28;20299;-76
2022/04/26 14:22:14;;;;;;;5.33;4.93;;;;;;;15.46;52.90;101315.41;4990279;28;20235;-76
2022/04/26 14:24:43;;;;;;;5.43;5.03;;;;;;;15.47;53.68;101297.84;4991077;28;20213;-77
2022/04/26 14:27:10;;;;;;;5.40;4.90;;;;;;;15.51;53.50;101274.97;4992414;28;20230;-77
2022/04/26 14:29:37;;;;;;;5.50;5.13;;;;;;;15.47;53.35;101292.59;4991674;28;20213;-76
2022/04/26 14:32:04;;;;;;;5.00;4.47;;;;;;;15.48;54.06;101276.75;4992323;28;20225;-76
2022/04/26 14:34:32;;;;;;;4.43;4.13;;;;;;;15.43;51.98;101306.72;4992330;28;20216;-76
2022/04/26 14:37:01;;;;;;;3.93;3.63;;;;;;;15.41;51.37;101340.09;4992350;28;20209;-77
2022/04/26 14:39:28;;;;;;;4.37;4.17;;;;;;;15.37;51.71;101357.72;4992571;28;20207;-76
2022/04/26 14:41:56;;;;;;;4.20;3.80;;;;;;;15.33;52.17;101340.28;4991931;28;20587;-76
2022/04/26 14:44:24;;;;;;;4.30;4.00;;;;;;;15.24;50.95;101390.47;4992791;28;20211;-75
2022/04/26 14:46:51;;;;;;;4.53;4.23;;;;;;;15.12;51.69;101388.97;4991496;28;20239;-76
2022/04/26 14:49:17;;;;;;;4.60;4.20;;;;;;;15.12;53.50;101340.78;4992548;28;20212;-77
2022/04/26 14:51:43;;;;;;;4.67;4.37;;;;;;;15.17;53.74;101310.00;4992363;28;20286;-76
2022/04/26 14:54:10;;;;;;;5.40;5.00;;;;;;;15.17;54.21;101287.19;4992213;28;20212;-76
2022/04/26 14:56:36;;;;;;;5.37;4.90;;;;;;;15.15;54.33;101280.25;4992131;28;20543;-76
2022/04/26 14:59:07;;;;;;;5.50;5.10;;;;;;;15.11;55.00;101261.03;4992451;28;20207;-75
2022/04/26 15:01:33;;;;;;;4.93;4.53;;;;;;;15.07;55.63;101228.69;4991749;28;20354;-76
2022/04/26 15:04:00;;;;;;;5.63;5.27;;;;;;;15.04;55.88;101218.28;4991863;28;20776;-75
2022/04/26 15:06:27;;;;;;;5.87;5.37;;;;;;;15.02;57.76;101175.34;4992297;28;20278;-75
2022/04/26 15:11:37;;;;;;;4.43;4.13;;;;;;;15.00;55.91;101171.03;4992146;28;20285;-75
2022/04/26 15:16:49;;;;;;;5.20;4.67;;;;;;;14.96;53.38;101243.00;4992485;28;20191;-74
2022/04/26 15:19:16;;;;;;;4.77;4.37;;;;;;;14.87;52.16;101338.72;4986748;28;20208;-76
2022/04/26 15:21:44;;;;;;;4.23;3.93;;;;;;;14.80;52.85;101345.00;4995782;28;20219;-74
2022/04/26 15:24:11;;;;;;;3.60;3.37;;;;;;;14.76;52.71;101332.84;4995192;28;20863;-75
2022/04/26 15:26:37;;;;;;;4.27;3.97;;;;;;;14.71;53.11;101325.06;4994302;28;20223;-75
2022/04/26 15:29:06;;;;;;;4.50;4.20;;;;;;;14.68;54.05;101297.06;4994970;28;20619;-75
2022/04/26 15:31:33;;;;;;;4.73;4.37;;;;;;;14.64;55.56;101256.00;4995346;28;20339;-75
2022/04/26 15:34:00;;;;;;;4.20;3.80;;;;;;;14.63;54.25;101241.16;4995828;28;20201;-74
2022/04/26 15:36:26;;;;;;;4.33;3.93;;;;;;;14.58;53.83;101284.19;4995678;28;20739;-74